Time,TemperatureF,DewpointF,PressureIn,WindDirection,WindDirectionDegrees,WindSpeedMPH,WindSpeedGustMPH,Humidity,HourlyPrecipIn,Conditions,Clouds,dailyrainin,SoftwareType,DateUTC
2013-03-30 00:13:00,55.0,43.0,30.25,ENE,72,0.0,-999.0,65,-99.99,,,0.00,weatherlink.com 1.10,2013-03-30 04:13:00,
2013-03-30 00:28:00,55.6,44.0,30.25,ENE,72,0.0,-999.0,65,-99.99,,,0.00,weatherlink.com 1.10,2013-03-30 04:28:00,
2013-03-30 00:43:00,55.7,44.0,30.24,ENE,72,0.0,-999.0,66,-99.99,,,0.00,weatherlink.com 1.10,2013-03-30 04:43:00,
2013-03-30 00:58:00,55.7,44.0,30.23,ENE,72,0.0,-999.0,66,-99.99,,,0.00,weatherlink.com 1.10,2013-03-30 04:58:00,
2013-03-30 01:13:00,55.6,45.0,30.23,ENE,72,0.0,-999.0,67,-99.99,,,0.00,weatherlink.com 1.10,2013-03-30 05:13:00,
2013-03-30 01:28:00,55.3,45.0,30.23,ENE,72,0.0,-999.0,68,-99.99,,,0.00,weatherlink.com 1.10,2013-03-30 05:28:00,
2013-03-30 01:43:00,55.0,45.0,30.22,ENE,72,0.0,-999.0,69,-99.99,,,0.00,weatherlink.com 1.10,2013-03-30 05:43:00,
2013-03-30 01:58:00,55.0,45.0,30.22,ENE,72,0.0,-999.0,69,-99.99,,,0.00,weatherlink.com 1.10,2013-03-30 05:58:00,
2013-03-30 02:13:00,55.1,45.0,30.21,ENE,72,0.0,-999.0,70,-99.99,,,0.00,weatherlink.com 1.10,2013-03-30 06:13:00,
2013-03-30 02:28:00,55.1,45.0,30.21,ENE,72,0.0,-999.0,70,-99.99,,,0.00,weatherlink.com 1.10,2013-03-30 06:28:00,
2013-03-30 02:43:00,55.0,45.0,30.21,ENE,72,0.0,-999.0,70,-99.99,,,0.00,weatherlink.com 1.10,2013-03-30 06:43:00,
2013-03-30 02:58:00,54.5,45.0,30.21,ENE,72,0.0,-999.0,71,-99.99,,,0.00,weatherlink.com 1.10,2013-03-30 06:58:00,
2013-03-30 03:13:00,54.4,45.0,30.21,ENE,72,0.0,-999.0,71,-99.99,,,0.00,weatherlink.com 1.10,2013-03-30 07:13:00,
2013-03-30 03:28:00,54.7,46.0,30.20,ENE,72,0.0,-999.0,72,-99.99,,,0.00,weatherlink.com 1.10,2013-03-30 07:28:00,
2013-03-30 03:43:00,55.4,46.0,30.20,ENE,72,0.0,-999.0,72,-99.99,,,0.00,weatherlink.com 1.10,2013-03-30 07:43:00,
2013-03-30 03:58:00,56.0,46.0,30.20,ENE,72,0.0,-999.0,70,-99.99,,,0.00,weatherlink.com 1.10,2013-03-30 07:58:00,
2013-03-30 04:13:00,56.3,46.0,30.20,East,93,0.0,-999.0,69,-99.99,,,0.00,weatherlink.com 1.10,2013-03-30 08:13:00,
2013-03-30 04:28:00,56.6,46.0,30.20,ENE,77,0.0,-999.0,68,-99.99,,,0.00,weatherlink.com 1.10,2013-03-30 08:28:00,
2013-03-30 04:43:00,56.6,46.0,30.20,SE,139,0.0,-999.0,68,-99.99,,,0.00,weatherlink.com 1.10,2013-03-30 08:43:00,
2013-03-30 04:58:00,56.5,46.0,30.20,SE,131,0.0,-999.0,67,-99.99,,,0.00,weatherlink.com 1.10,2013-03-30 08:58:00,
2013-03-30 05:13:00,56.2,45.0,30.20,ESE,112,0.0,-999.0,66,-99.99,,,0.00,weatherlink.com 1.10,2013-03-30 09:13:00,
2013-03-30 05:28:00,56.0,45.0,30.20,ESE,110,0.0,-999.0,66,-99.99,,,0.00,weatherlink.com 1.10,2013-03-30 09:28:00,
2013-03-30 05:43:00,55.7,44.0,30.20,ESE,106,0.0,-999.0,65,-99.99,,,0.00,weatherlink.com 1.10,2013-03-30 09:43:00,
2013-03-30 05:58:00,55.7,44.0,30.20,East,99,0.0,-999.0,65,-99.99,,,0.00,weatherlink.com 1.10,2013-03-30 09:58:00,
2013-03-30 06:13:00,55.6,43.0,30.20,SE,125,0.0,-999.0,63,-99.99,,,0.00,weatherlink.com 1.10,2013-03-30 10:13:00,
2013-03-30 06:28:00,55.4,43.0,30.20,ENE,78,0.0,-999.0,63,-99.99,,,0.00,weatherlink.com 1.10,2013-03-30 10:28:00,
2013-03-30 06:44:00,55.4,43.0,30.20,ENE,75,0.0,-999.0,64,-99.99,,,0.00,weatherlink.com 1.10,2013-03-30 10:44:00,
2013-03-30 06:59:00,55.6,44.0,30.20,ENE,77,0.0,-999.0,65,-99.99,,,0.00,weatherlink.com 1.10,2013-03-30 10:59:00,
2013-03-30 07:14:00,55.6,44.0,30.20,ENE,66,1.0,-999.0,65,-99.99,,,0.00,weatherlink.com 1.10,2013-03-30 11:14:00,
2013-03-30 07:29:00,55.6,43.0,30.20,ENE,58,1.0,-999.0,63,-99.99,,,0.00,weatherlink.com 1.10,2013-03-30 11:29:00,
2013-03-30 07:44:00,55.7,43.0,30.21,NE,54,3.0,-999.0,63,-99.99,,,0.00,weatherlink.com 1.10,2013-03-30 11:44:00,
2013-03-30 07:59:00,55.9,43.0,30.21,NE,45,1.0,-999.0,63,-99.99,,,0.00,weatherlink.com 1.10,2013-03-30 11:59:00,
2013-03-30 08:14:00,56.2,44.0,30.21,NE,54,3.0,-999.0,63,-99.99,,,0.00,weatherlink.com 1.10,2013-03-30 12:14:00,
2013-03-30 08:29:00,56.3,43.0,30.22,South,174,2.0,-999.0,62,-99.99,,,0.00,weatherlink.com 1.10,2013-03-30 12:29:00,
2013-03-30 08:44:00,56.5,43.0,30.22,ENE,66,1.0,-999.0,60,-99.99,,,0.00,weatherlink.com 1.10,2013-03-30 12:44:00,
2013-03-30 08:59:00,56.6,42.0,30.21,ENE,64,1.0,-999.0,59,-99.99,,,0.00,weatherlink.com 1.10,2013-03-30 12:59:00,
2013-03-30 09:14:00,56.9,42.0,30.22,ENE,75,0.0,-999.0,59,-99.99,,,0.00,weatherlink.com 1.10,2013-03-30 13:14:00,
2013-03-30 09:29:00,57.3,42.0,30.22,ENE,71,1.0,-999.0,56,-99.99,,,0.00,weatherlink.com 1.10,2013-03-30 13:29:00,
2013-03-30 09:44:00,58.3,42.0,30.21,NE,49,3.0,-999.0,55,-99.99,,,0.00,weatherlink.com 1.10,2013-03-30 13:44:00,
2013-03-30 09:59:00,59.5,42.0,30.21,ESE,112,1.0,-999.0,52,-99.99,,,0.00,weatherlink.com 1.10,2013-03-30 13:59:00,
2013-03-30 10:14:00,60.5,40.0,30.21,East,99,1.0,-999.0,48,-99.99,,,0.00,weatherlink.com 1.10,2013-03-30 14:14:00,
2013-03-30 10:29:00,61.8,42.0,30.20,NE,54,0.0,-999.0,48,-99.99,,,0.00,weatherlink.com 1.10,2013-03-30 14:29:00,
2013-03-30 10:44:00,62.7,41.0,30.20,ENE,70,0.0,-999.0,46,-99.99,,,0.00,weatherlink.com 1.10,2013-03-30 14:44:00,
2013-03-30 10:59:00,63.4,39.0,30.21,SE,130,3.0,-999.0,41,-99.99,,,0.00,weatherlink.com 1.10,2013-03-30 14:59:00,
2013-03-30 11:14:00,64.7,40.0,30.20,ENE,60,2.0,-999.0,40,-99.99,,,0.00,weatherlink.com 1.10,2013-03-30 15:14:00,
2013-03-30 11:31:00,66.1,38.0,30.20,North,355,3.0,-999.0,36,-99.99,,,0.00,weatherlink.com 1.10,2013-03-30 15:31:00,
2013-03-30 11:44:00,66.1,38.0,30.20,ENE,60,6.0,-999.0,35,-99.99,,,0.00,weatherlink.com 1.10,2013-03-30 15:44:00,
2013-03-30 11:59:00,67.1,39.0,30.20,NE,45,7.0,-999.0,36,-99.99,,,0.00,weatherlink.com 1.10,2013-03-30 15:59:00,
2013-03-30 12:14:00,68.1,40.0,30.20,ESE,102,0.0,-999.0,36,-99.99,,,0.00,weatherlink.com 1.10,2013-03-30 16:14:00,
2013-03-30 12:29:00,69.9,41.0,30.20,ESE,112,1.0,-999.0,35,-99.99,,,0.00,weatherlink.com 1.10,2013-03-30 16:29:00,
2013-03-30 12:44:00,70.4,40.0,30.18,NNE,32,0.0,-999.0,33,-99.99,,,0.00,weatherlink.com 1.10,2013-03-30 16:44:00,
2013-03-30 12:59:00,71.5,41.0,30.18,NNE,20,1.0,-999.0,33,-99.99,,,0.00,weatherlink.com 1.10,2013-03-30 16:59:00,
2013-03-30 13:14:00,70.8,39.0,30.18,NNE,12,2.0,-999.0,32,-99.99,,,0.00,weatherlink.com 1.10,2013-03-30 17:14:00,
2013-03-30 13:29:00,70.1,37.0,30.17,NNW,345,2.0,-999.0,30,-99.99,,,0.00,weatherlink.com 1.10,2013-03-30 17:29:00,
2013-03-30 13:44:00,71.6,40.0,30.17,NNE,13,1.0,-999.0,32,-99.99,,,0.00,weatherlink.com 1.10,2013-03-30 17:44:00,
2013-03-30 13:59:00,72.7,39.0,30.16,ENE,70,2.0,-999.0,29,-99.99,,,0.00,weatherlink.com 1.10,2013-03-30 17:59:00,
2013-03-30 14:14:00,72.3,39.0,30.16,North,2,2.0,-999.0,30,-99.99,,,0.00,weatherlink.com 1.10,2013-03-30 18:14:00,
2013-03-30 14:29:00,72.0,38.0,30.15,NW,304,3.0,-999.0,29,-99.99,,,0.00,weatherlink.com 1.10,2013-03-30 18:29:00,
2013-03-30 14:44:00,71.5,38.0,30.15,NNE,13,1.0,-999.0,30,-99.99,,,0.00,weatherlink.com 1.10,2013-03-30 18:44:00,
2013-03-30 14:59:00,71.1,38.0,30.14,ENE,63,0.0,-999.0,30,-99.99,,,0.00,weatherlink.com 1.10,2013-03-30 18:59:00,
2013-03-30 15:14:00,70.6,38.0,30.13,NE,40,2.0,-999.0,31,-99.99,,,0.00,weatherlink.com 1.10,2013-03-30 19:14:00,
2013-03-30 15:29:00,70.3,36.0,30.12,NNW,327,4.0,-999.0,29,-99.99,,,0.00,weatherlink.com 1.10,2013-03-30 19:29:00,
2013-03-30 15:44:00,69.6,38.0,30.11,NNE,15,2.0,-999.0,32,-99.99,,,0.00,weatherlink.com 1.10,2013-03-30 19:44:00,
2013-03-30 15:59:00,69.4,37.0,30.11,East,82,3.0,-999.0,31,-99.99,,,0.00,weatherlink.com 1.10,2013-03-30 19:59:00,
2013-03-30 16:14:00,69.3,38.0,30.11,ESE,102,4.0,-999.0,32,-99.99,,,0.00,weatherlink.com 1.10,2013-03-30 20:14:00,
2013-03-30 16:29:00,68.4,40.0,30.11,ENE,69,6.0,-999.0,36,-99.99,,,0.00,weatherlink.com 1.10,2013-03-30 20:29:00,
2013-03-30 16:44:00,67.9,43.0,30.10,North,4,1.0,-999.0,40,-99.99,,,0.00,weatherlink.com 1.10,2013-03-30 20:44:00,
2013-03-30 16:59:00,67.3,43.0,30.10,North,359,3.0,-999.0,41,-99.99,,,0.00,weatherlink.com 1.10,2013-03-30 20:59:00,
2013-03-30 17:15:00,66.3,43.0,30.10,North,353,2.0,-999.0,43,-99.99,,,0.00,weatherlink.com 1.10,2013-03-30 21:15:00,
2013-03-30 17:30:00,65.5,43.0,30.10,East,80,7.0,-999.0,45,-99.99,,,0.00,weatherlink.com 1.10,2013-03-30 21:30:00,
2013-03-30 17:45:00,64.8,43.0,30.10,North,356,5.0,-999.0,46,-99.99,,,0.00,weatherlink.com 1.10,2013-03-30 21:45:00,
2013-03-30 18:00:00,64.2,43.0,30.10,ENE,72,6.0,-999.0,47,-99.99,,,0.00,weatherlink.com 1.10,2013-03-30 22:00:00,
2013-03-30 18:15:00,64.2,44.0,30.10,ENE,58,3.0,-999.0,48,-99.99,,,0.00,weatherlink.com 1.10,2013-03-30 22:15:00,
2013-03-30 18:30:00,64.0,44.0,30.10,ENE,65,2.0,-999.0,49,-99.99,,,0.00,weatherlink.com 1.10,2013-03-30 22:30:00,
2013-03-30 18:45:00,63.9,45.0,30.10,ENE,74,3.0,-999.0,50,-99.99,,,0.00,weatherlink.com 1.10,2013-03-30 22:45:00,
2013-03-30 19:00:00,63.5,45.0,30.10,NNE,21,1.0,-999.0,51,-99.99,,,0.00,weatherlink.com 1.10,2013-03-30 23:00:00,
2013-03-30 19:15:00,62.9,46.0,30.11,ENE,63,7.0,-999.0,54,-99.99,,,0.00,weatherlink.com 1.10,2013-03-30 23:15:00,
2013-03-30 19:30:00,62.0,46.0,30.11,ENE,66,2.0,-999.0,57,-99.99,,,0.00,weatherlink.com 1.10,2013-03-30 23:30:00,
2013-03-30 19:45:00,61.3,47.0,30.11,ENE,76,1.0,-999.0,59,-99.99,,,0.00,weatherlink.com 1.10,2013-03-30 23:45:00,
2013-03-30 20:00:00,60.9,47.0,30.11,ENE,70,1.0,-999.0,61,-99.99,,,0.00,weatherlink.com 1.10,2013-03-31 00:00:00,
2013-03-30 20:15:00,60.7,47.0,30.11,ENE,63,1.0,-999.0,62,-99.99,,,0.00,weatherlink.com 1.10,2013-03-31 00:15:00,
2013-03-30 20:30:00,60.5,47.0,30.11,NNE,16,1.0,-999.0,62,-99.99,,,0.00,weatherlink.com 1.10,2013-03-31 00:30:00,
2013-03-30 20:45:00,60.5,48.0,30.11,East,86,2.0,-999.0,63,-99.99,,,0.00,weatherlink.com 1.10,2013-03-31 00:45:00,
2013-03-30 21:00:00,60.5,48.0,30.11,ENE,73,1.0,-999.0,63,-99.99,,,0.00,weatherlink.com 1.10,2013-03-31 01:00:00,
2013-03-30 21:15:00,60.7,48.0,30.12,North,359,6.0,-999.0,63,-99.99,,,0.00,weatherlink.com 1.10,2013-03-31 01:15:00,
2013-03-30 21:30:00,60.7,48.0,30.12,ENE,78,0.0,-999.0,63,-99.99,,,0.00,weatherlink.com 1.10,2013-03-31 01:30:00,
2013-03-30 21:45:00,60.7,48.0,30.12,NE,39,3.0,-999.0,63,-99.99,,,0.00,weatherlink.com 1.10,2013-03-31 01:45:00,
2013-03-30 22:00:00,60.9,48.0,30.12,NE,34,1.0,-999.0,63,-99.99,,,0.00,weatherlink.com 1.10,2013-03-31 02:00:00,
2013-03-30 22:15:00,60.9,48.0,30.11,ENE,68,1.0,-999.0,63,-99.99,,,0.00,weatherlink.com 1.10,2013-03-31 02:15:00,
2013-03-30 22:30:00,61.0,48.0,30.12,ENE,67,6.0,-999.0,63,-99.99,,,0.00,weatherlink.com 1.10,2013-03-31 02:30:00,
2013-03-30 22:45:00,61.0,49.0,30.12,ENE,70,2.0,-999.0,64,-99.99,,,0.00,weatherlink.com 1.10,2013-03-31 02:45:00,
2013-03-30 23:00:00,61.0,49.0,30.12,NW,324,3.0,-999.0,66,-99.99,,,0.00,weatherlink.com 1.10,2013-03-31 03:00:00,
2013-03-30 23:15:00,61.0,49.0,30.12,NE,34,3.0,-999.0,66,-99.99,,,0.00,weatherlink.com 1.10,2013-03-31 03:15:00,
2013-03-30 23:30:00,61.0,50.0,30.12,NE,40,3.0,-999.0,67,-99.99,,,0.00,weatherlink.com 1.10,2013-03-31 03:30:00,
2013-03-30 23:45:00,61.0,50.0,30.11,NE,37,2.0,-999.0,68,-99.99,,,0.00,weatherlink.com 1.10,2013-03-31 03:45:00,